SCC: VIR: Qualifying times

Pos Num Class CPos Team Car Time Gap To 1st Speed --- --- ----- ----- ------------------------------ ----------------- ---------- ------- ------- ------- 1. 59 GS 1 Rehagen Racing ...

 Pos Num Class CPos  Team                           Car                     Time     Gap  To 1st   Speed
--- --- ----- ----- ------------------------------ ----------------- ---------- ------- ------- -------
 1.  59 GS    1     Rehagen Racing                 Ford Mustang GT     2:02.611                  96.010
 2.  28 GS    2     Fall-Line Motorsports          BMW M3 Coupe        2:03.279   0.668   0.668  95.490
 3.  52 GS    3     Rehagen Racing                 Ford Mustang GT     2:03.318   0.039   0.707  95.460
 4.  91 GS    4     Automatic Racing               BMW M3 Coupe        2:03.517   0.199   0.906  95.306
 5.   8 GS    5     Maxwell Paper Racing           Porsche 997         2:03.696   0.179   1.085  95.168
 6.  96 GS    6     Turner Motorsport              BMW M3 Coupe        2:03.730   0.034   1.119  95.142
 7.  26 GS    7     BGB Motorsports                Porsche 997         2:03.775   0.045   1.164  95.108
 8.  32 GS    8     Kinetic Motorsports            BMW M3 Coupe        2:03.841   0.066   1.230  95.057
 9.  37 GS    9     JBS Motorsports                Ford Mustang GT     2:04.001   0.160   1.390  94.934
10.  39 GS    10    TRG                            Porsche 997         2:04.060   0.059   1.449  94.889
11.  61 GS    11    Horsepower Ranch               Ford Mustang GT     2:04.135   0.075   1.524  94.832
12.  17 GS    12    CMA Motorsports                Ford Mustang GT     2:04.230   0.095   1.619  94.759
13.   6 GS    13    Stevenson Motorsports          Chevrolet Camaro    2:04.642   0.412   2.031  94.446
14.  33 GS    14    Kinetic Motorsports            BMW M3 Coupe        2:04.729   0.087   2.118  94.380
15.  87 GS    15    Kinetic Motorsports            BMW M3 Coupe        2:05.307   0.578   2.696  93.945
16.  58 GS    16    Rehagen Racing                 Ford Mustang GT     2:05.603   0.296   2.992  93.723
17.  18 GS    17    Motorsport Technology Group    Porsche 997         2:05.609   0.006   2.998  93.719
18.  47 GS    18    JBS Motorsports                Ford Mustang GT     2:05.909   0.300   3.298  93.496
19.  83 GS    19    BGB Motorsports                Porsche 997         2:05.987   0.078   3.376  93.438
20.  41 GS    20    TRG                            Porsche 997         2:06.337   0.350   3.726  93.179
21.  79 GS    21    Kinetic Motorsports            BMW M3 Coupe        2:06.400   0.063   3.789  93.132
22.  97 GS    22    Turner Motorsport              BMW M3 Coupe        2:06.448   0.048   3.837  93.097
23.   2 GS    23    CMA Motorsports                Ford Mustang GT     2:06.768   0.320   4.157  92.862
24. 197 ST    1     RSR Motorsports                Mini Cooper S       2:10.113   3.345   7.502  90.475
25. 111 ST    2     Subaru Road Racing Team        Subaru Legacy       2:10.601   0.488   7.990  90.137
26. 146 ST    3     Freedom Autosport              Mazda MX-5          2:10.671   0.070   8.060  90.088
27. 171 ST    4     APR Motorsport                 Volkswagen GTI      2:10.764   0.093   8.153  90.024
28. 145 ST    5     Freedom Autosport              Mazda MX-5          2:10.767   0.003   8.156  90.022
29.  99 GS    24    Automatic Racing               BMW M3 Coupe        2:11.117   0.350   8.506  89.782
30.  75 ST    6     Compass360 Racing              Honda Civic Si      2:11.157   0.040   8.546  89.755
31.  74 ST    7     Compass360 Racing              Honda Civic Si      2:11.197   0.040   8.586  89.727
32.  21 ST    8     RRT Racing                     BMW 328i            2:11.255   0.058   8.644  89.688
33.  22 ST    9     HART                           BMW 328i            2:11.327   0.072   8.716  89.638
34.  29 ST    10    Bill Fenton Motorsports        Honda Civic SI      2:11.468   0.141   8.857  89.542
35.  66 ST    11    Riley Racing                   Mazda RX-8          2:11.530   0.062   8.919  89.500
36. 198 ST    12    RSR Motorsports                Mini Cooper S       2:11.785   0.255   9.174  89.327
37.  95 ST    13    Turner Motorsport              BMW 328i            2:12.321   0.536   9.710  88.965
38.  27 ST    14    Bill Fenton Motorsports        Honda Civic SI      2:12.759   0.438  10.148  88.671
39.  50 ST    15    Irish Mike's Racing            Volkswagen Jetta    2:13.410   0.651  10.799  88.239
40. 138 ST    16    GS Motorsports                 Chevrolet Cobalt    2:13.877   0.467  11.266  87.931
41. 196 ST    17    RSR Motorsports                Mini Cooper S       2:14.112   0.235  11.501  87.777
42. 147 ST    18    Freedom Autosport              Mazda MX-5          2:14.259   0.147  11.648  87.681
43.  72 ST    19    DeMan Motorsport               Porsche Boxster     2:15.055   0.796  12.444  87.164
44.  76 ST    20    Compass360 Racing              Honda Civic Si      2:15.135   0.080  12.524  87.112
45.  51 ST    21    Irish Mike's Racing            Volkswagen Jetta    2:16.555   1.420  13.944  86.207
46.  24 ST    22    V-Pack Motorsport              BMW 330             2:16.638   0.083  14.027  86.154
47.  64 ST    23    Next Generation/Giovanis       BMW 330             2:20.462   3.824  17.851  83.809
48.  88 GS    25    Ranger Sports Racing           Porsche 997         2:23.353   2.891  20.742  82.118

Be part of something big

Write a comment
Show comments
About this article
Series Grand-Am
Drivers Bill Fenton
Teams Kinetic Motorsports , Rehagen Racing , Turner Motorsport , Stevenson Motorsports , Compass360 Racing , Automatic Racing , Freedom Autosport , HART , Fall-Line Motorsports , Irish Mike's Racing